sensor_id;sensor_type;location;lat;lon;timestamp;P1;durP1;ratioP1;P2;durP2;ratioP2
26718;SDS011;14326;50.794;6.060;2024-03-22T00:00:46;30.77;;;13.80;;
26718;SDS011;14326;50.794;6.060;2024-03-22T00:03:12;30.90;;;13.18;;
26718;SDS011;14326;50.794;6.060;2024-03-22T00:05:38;36.53;;;15.48;;
26718;SDS011;14326;50.794;6.060;2024-03-22T00:08:04;32.58;;;13.57;;
26718;SDS011;14326;50.794;6.060;2024-03-22T00:10:31;33.50;;;14.50;;
26718;SDS011;14326;50.794;6.060;2024-03-22T00:12:57;32.00;;;13.75;;
26718;SDS011;14326;50.794;6.060;2024-03-22T00:15:25;32.67;;;13.85;;
26718;SDS011;14326;50.794;6.060;2024-03-22T00:17:51;30.10;;;13.15;;
26718;SDS011;14326;50.794;6.060;2024-03-22T00:20:17;33.30;;;13.68;;
26718;SDS011;14326;50.794;6.060;2024-03-22T00:22:43;29.45;;;13.00;;
26718;SDS011;14326;50.794;6.060;2024-03-22T00:25:09;30.98;;;13.75;;
26718;SDS011;14326;50.794;6.060;2024-03-22T00:27:35;31.23;;;14.32;;
26718;SDS011;14326;50.794;6.060;2024-03-22T00:30:02;31.58;;;14.25;;
26718;SDS011;14326;50.794;6.060;2024-03-22T00:32:29;33.70;;;13.50;;
26718;SDS011;14326;50.794;6.060;2024-03-22T00:34:55;29.27;;;12.77;;
26718;SDS011;14326;50.794;6.060;2024-03-22T00:37:21;30.13;;;12.98;;
26718;SDS011;14326;50.794;6.060;2024-03-22T00:39:48;30.40;;;12.20;;
26718;SDS011;14326;50.794;6.060;2024-03-22T00:42:13;27.55;;;12.18;;
26718;SDS011;14326;50.794;6.060;2024-03-22T00:44:40;29.75;;;12.52;;
26718;SDS011;14326;50.794;6.060;2024-03-22T00:47:06;32.35;;;12.30;;
26718;SDS011;14326;50.794;6.060;2024-03-22T00:49:34;32.60;;;13.10;;
26718;SDS011;14326;50.794;6.060;2024-03-22T00:51:59;28.88;;;12.10;;
26718;SDS011;14326;50.794;6.060;2024-03-22T00:54:26;30.38;;;13.50;;
26718;SDS011;14326;50.794;6.060;2024-03-22T00:56:52;30.27;;;14.20;;
26718;SDS011;14326;50.794;6.060;2024-03-22T00:59:18;32.35;;;14.07;;
26718;SDS011;14326;50.794;6.060;2024-03-22T01:01:44;29.00;;;12.77;;
26718;SDS011;14326;50.794;6.060;2024-03-22T01:04:10;32.60;;;13.55;;
26718;SDS011;14326;50.794;6.060;2024-03-22T01:06:37;31.73;;;13.63;;
26718;SDS011;14326;50.794;6.060;2024-03-22T01:09:05;30.45;;;13.38;;
26718;SDS011;14326;50.794;6.060;2024-03-22T01:11:30;26.27;;;11.63;;
26718;SDS011;14326;50.794;6.060;2024-03-22T01:13:57;32.38;;;13.07;;
26718;SDS011;14326;50.794;6.060;2024-03-22T01:16:22;33.28;;;13.52;;
26718;SDS011;14326;50.794;6.060;2024-03-22T01:18:49;27.90;;;12.93;;
26718;SDS011;14326;50.794;6.060;2024-03-22T01:21:14;29.85;;;12.98;;
26718;SDS011;14326;50.794;6.060;2024-03-22T01:23:42;32.80;;;12.90;;
26718;SDS011;14326;50.794;6.060;2024-03-22T01:26:08;27.90;;;12.73;;
26718;SDS011;14326;50.794;6.060;2024-03-22T01:28:34;29.20;;;11.93;;
26718;SDS011;14326;50.794;6.060;2024-03-22T01:31:00;27.23;;;11.90;;
26718;SDS011;14326;50.794;6.060;2024-03-22T01:33:27;32.88;;;13.32;;
26718;SDS011;14326;50.794;6.060;2024-03-22T01:35:52;28.52;;;11.75;;
26718;SDS011;14326;50.794;6.060;2024-03-22T01:38:19;27.55;;;11.73;;
26718;SDS011;14326;50.794;6.060;2024-03-22T01:40:46;32.10;;;12.73;;
26718;SDS011;14326;50.794;6.060;2024-03-22T01:43:12;26.88;;;12.18;;
26718;SDS011;14326;50.794;6.060;2024-03-22T01:45:38;30.77;;;13.40;;
26718;SDS011;14326;50.794;6.060;2024-03-22T01:48:05;28.90;;;13.05;;
26718;SDS011;14326;50.794;6.060;2024-03-22T01:50:32;28.38;;;13.32;;
26718;SDS011;14326;50.794;6.060;2024-03-22T01:52:59;29.65;;;13.55;;
26718;SDS011;14326;50.794;6.060;2024-03-22T01:55:26;28.02;;;13.00;;
26718;SDS011;14326;50.794;6.060;2024-03-22T01:57:55;31.48;;;14.75;;
26718;SDS011;14326;50.794;6.060;2024-03-22T02:00:21;31.73;;;13.63;;
26718;SDS011;14326;50.794;6.060;2024-03-22T02:02:47;32.17;;;14.10;;
26718;SDS011;14326;50.794;6.060;2024-03-22T02:05:13;30.80;;;14.57;;
26718;SDS011;14326;50.794;6.060;2024-03-22T02:07:41;32.38;;;14.35;;
26718;SDS011;14326;50.794;6.060;2024-03-22T02:10:07;32.70;;;14.25;;
26718;SDS011;14326;50.794;6.060;2024-03-22T02:12:35;29.27;;;14.02;;
26718;SDS011;14326;50.794;6.060;2024-03-22T02:15:03;30.80;;;13.75;;
26718;SDS011;14326;50.794;6.060;2024-03-22T02:17:31;33.47;;;14.07;;
26718;SDS011;14326;50.794;6.060;2024-03-22T02:19:57;34.33;;;15.00;;
26718;SDS011;14326;50.794;6.060;2024-03-22T02:22:23;32.78;;;14.10;;
26718;SDS011;14326;50.794;6.060;2024-03-22T02:24:51;30.92;;;14.63;;
26718;SDS011;14326;50.794;6.060;2024-03-22T02:27:20;31.85;;;14.07;;
26718;SDS011;14326;50.794;6.060;2024-03-22T02:29:46;29.77;;;13.85;;
26718;SDS011;14326;50.794;6.060;2024-03-22T02:32:12;31.67;;;13.68;;
26718;SDS011;14326;50.794;6.060;2024-03-22T02:34:38;32.97;;;14.88;;
26718;SDS011;14326;50.794;6.060;2024-03-22T02:37:05;31.75;;;13.95;;
26718;SDS011;14326;50.794;6.060;2024-03-22T02:39:30;29.70;;;13.23;;
26718;SDS011;14326;50.794;6.060;2024-03-22T02:41:58;32.22;;;14.27;;
26718;SDS011;14326;50.794;6.060;2024-03-22T02:44:24;31.70;;;14.02;;
26718;SDS011;14326;50.794;6.060;2024-03-22T02:46:50;34.00;;;15.05;;
26718;SDS011;14326;50.794;6.060;2024-03-22T02:49:16;32.45;;;14.30;;
26718;SDS011;14326;50.794;6.060;2024-03-22T02:51:43;28.73;;;13.30;;
26718;SDS011;14326;50.794;6.060;2024-03-22T02:54:08;28.98;;;14.20;;
26718;SDS011;14326;50.794;6.060;2024-03-22T02:56:35;31.15;;;13.05;;
26718;SDS011;14326;50.794;6.060;2024-03-22T02:59:02;32.30;;;13.88;;
26718;SDS011;14326;50.794;6.060;2024-03-22T03:01:28;27.52;;;12.38;;
26718;SDS011;14326;50.794;6.060;2024-03-22T03:03:54;29.52;;;12.60;;
26718;SDS011;14326;50.794;6.060;2024-03-22T03:06:21;28.85;;;13.35;;
26718;SDS011;14326;50.794;6.060;2024-03-22T03:08:46;29.35;;;13.30;;
26718;SDS011;14326;50.794;6.060;2024-03-22T03:11:13;26.52;;;12.52;;
26718;SDS011;14326;50.794;6.060;2024-03-22T03:13:39;25.67;;;11.23;;
26718;SDS011;14326;50.794;6.060;2024-03-22T03:16:07;29.52;;;12.55;;
26718;SDS011;14326;50.794;6.060;2024-03-22T03:18:33;28.42;;;11.63;;
26718;SDS011;14326;50.794;6.060;2024-03-22T03:20:59;27.80;;;11.00;;
26718;SDS011;14326;50.794;6.060;2024-03-22T03:23:25;29.20;;;11.75;;
26718;SDS011;14326;50.794;6.060;2024-03-22T03:25:51;25.17;;;10.80;;
26718;SDS011;14326;50.794;6.060;2024-03-22T03:28:17;26.30;;;11.15;;
26718;SDS011;14326;50.794;6.060;2024-03-22T03:30:44;27.67;;;11.23;;
26718;SDS011;14326;50.794;6.060;2024-03-22T03:33:11;24.02;;;11.32;;
26718;SDS011;14326;50.794;6.060;2024-03-22T03:35:37;26.75;;;10.73;;
26718;SDS011;14326;50.794;6.060;2024-03-22T03:38:03;26.00;;;11.57;;
26718;SDS011;14326;50.794;6.060;2024-03-22T03:40:30;26.67;;;10.63;;
26718;SDS011;14326;50.794;6.060;2024-03-22T03:42:56;25.73;;;11.30;;
26718;SDS011;14326;50.794;6.060;2024-03-22T03:45:22;27.13;;;10.18;;
26718;SDS011;14326;50.794;6.060;2024-03-22T03:47:48;28.73;;;11.98;;
26718;SDS011;14326;50.794;6.060;2024-03-22T03:50:16;29.73;;;12.10;;
26718;SDS011;14326;50.794;6.060;2024-03-22T03:52:41;27.02;;;11.48;;
26718;SDS011;14326;50.794;6.060;2024-03-22T03:55:08;25.15;;;11.25;;
26718;SDS011;14326;50.794;6.060;2024-03-22T03:57:34;28.77;;;12.80;;
26718;SDS011;14326;50.794;6.060;2024-03-22T04:00:00;32.08;;;13.38;;
26718;SDS011;14326;50.794;6.060;2024-03-22T04:02:26;25.05;;;11.95;;
26718;SDS011;14326;50.794;6.060;2024-03-22T04:04:53;30.52;;;12.82;;
26718;SDS011;14326;50.794;6.060;2024-03-22T04:07:20;36.10;;;14.95;;
26718;SDS011;14326;50.794;6.060;2024-03-22T04:09:47;29.83;;;13.85;;
26718;SDS011;14326;50.794;6.060;2024-03-22T04:12:12;31.73;;;14.43;;
26718;SDS011;14326;50.794;6.060;2024-03-22T04:14:39;31.13;;;14.10;;
26718;SDS011;14326;50.794;6.060;2024-03-22T04:17:05;30.88;;;14.40;;
26718;SDS011;14326;50.794;6.060;2024-03-22T04:19:31;29.35;;;13.70;;
26718;SDS011;14326;50.794;6.060;2024-03-22T04:21:57;30.38;;;14.38;;
26718;SDS011;14326;50.794;6.060;2024-03-22T04:24:25;32.83;;;15.07;;
26718;SDS011;14326;50.794;6.060;2024-03-22T04:26:50;34.45;;;14.40;;
26718;SDS011;14326;50.794;6.060;2024-03-22T04:29:17;32.75;;;15.15;;
26718;SDS011;14326;50.794;6.060;2024-03-22T04:31:42;33.65;;;15.35;;
26718;SDS011;14326;50.794;6.060;2024-03-22T04:34:09;33.92;;;14.98;;
26718;SDS011;14326;50.794;6.060;2024-03-22T04:36:35;35.83;;;16.77;;
26718;SDS011;14326;50.794;6.060;2024-03-22T04:39:02;36.97;;;15.45;;
26718;SDS011;14326;50.794;6.060;2024-03-22T04:41:30;32.92;;;15.27;;
26718;SDS011;14326;50.794;6.060;2024-03-22T04:43:57;36.65;;;15.75;;
26718;SDS011;14326;50.794;6.060;2024-03-22T04:46:23;35.70;;;16.05;;
26718;SDS011;14326;50.794;6.060;2024-03-22T04:48:49;32.28;;;15.05;;
26718;SDS011;14326;50.794;6.060;2024-03-22T04:51:15;33.47;;;16.25;;
26718;SDS011;14326;50.794;6.060;2024-03-22T04:53:41;35.33;;;17.17;;
26718;SDS011;14326;50.794;6.060;2024-03-22T04:56:07;35.75;;;16.23;;
26718;SDS011;14326;50.794;6.060;2024-03-22T04:58:35;37.28;;;16.15;;
26718;SDS011;14326;50.794;6.060;2024-03-22T05:01:02;35.20;;;16.25;;
26718;SDS011;14326;50.794;6.060;2024-03-22T05:03:28;33.70;;;16.85;;
26718;SDS011;14326;50.794;6.060;2024-03-22T05:05:54;35.17;;;16.58;;
26718;SDS011;14326;50.794;6.060;2024-03-22T05:08:22;35.63;;;16.73;;
26718;SDS011;14326;50.794;6.060;2024-03-22T05:10:49;35.58;;;17.08;;
26718;SDS011;14326;50.794;6.060;2024-03-22T05:13:14;34.97;;;17.40;;
26718;SDS011;14326;50.794;6.060;2024-03-22T05:15:42;39.75;;;18.05;;
26718;SDS011;14326;50.794;6.060;2024-03-22T05:18:08;38.75;;;18.40;;
26718;SDS011;14326;50.794;6.060;2024-03-22T05:20:35;38.20;;;16.65;;
26718;SDS011;14326;50.794;6.060;2024-03-22T05:23:01;38.95;;;17.98;;
26718;SDS011;14326;50.794;6.060;2024-03-22T05:25:27;40.15;;;19.73;;
26718;SDS011;14326;50.794;6.060;2024-03-22T05:27:54;38.40;;;18.15;;
26718;SDS011;14326;50.794;6.060;2024-03-22T05:30:19;39.65;;;17.73;;
26718;SDS011;14326;50.794;6.060;2024-03-22T05:32:47;38.90;;;18.35;;
26718;SDS011;14326;50.794;6.060;2024-03-22T05:35:15;35.33;;;17.27;;
26718;SDS011;14326;50.794;6.060;2024-03-22T05:37:41;40.80;;;19.65;;
26718;SDS011;14326;50.794;6.060;2024-03-22T05:40:08;43.22;;;20.45;;
26718;SDS011;14326;50.794;6.060;2024-03-22T05:42:35;36.60;;;18.75;;
26718;SDS011;14326;50.794;6.060;2024-03-22T05:45:01;40.67;;;18.67;;
26718;SDS011;14326;50.794;6.060;2024-03-22T05:47:28;44.35;;;20.17;;
26718;SDS011;14326;50.794;6.060;2024-03-22T05:49:57;39.75;;;19.52;;
26718;SDS011;14326;50.794;6.060;2024-03-22T05:52:24;41.42;;;18.85;;
26718;SDS011;14326;50.794;6.060;2024-03-22T05:54:50;37.13;;;18.70;;
26718;SDS011;14326;50.794;6.060;2024-03-22T05:57:16;37.65;;;18.33;;
26718;SDS011;14326;50.794;6.060;2024-03-22T05:59:43;36.22;;;17.42;;
26718;SDS011;14326;50.794;6.060;2024-03-22T06:02:08;38.85;;;18.60;;
26718;SDS011;14326;50.794;6.060;2024-03-22T06:04:35;37.13;;;17.80;;
26718;SDS011;14326;50.794;6.060;2024-03-22T06:07:02;38.03;;;18.85;;
26718;SDS011;14326;50.794;6.060;2024-03-22T06:09:31;36.70;;;17.42;;
26718;SDS011;14326;50.794;6.060;2024-03-22T06:12:02;34.40;;;17.27;;
26718;SDS011;14326;50.794;6.060;2024-03-22T06:14:29;36.35;;;14.68;;
26718;SDS011;14326;50.794;6.060;2024-03-22T06:16:55;28.45;;;13.32;;
26718;SDS011;14326;50.794;6.060;2024-03-22T06:19:22;28.75;;;12.23;;
26718;SDS011;14326;50.794;6.060;2024-03-22T06:21:48;27.95;;;12.57;;
26718;SDS011;14326;50.794;6.060;2024-03-22T06:24:16;28.85;;;11.50;;
26718;SDS011;14326;50.794;6.060;2024-03-22T06:26:42;29.63;;;10.23;;
26718;SDS011;14326;50.794;6.060;2024-03-22T06:29:08;23.75;;;10.23;;
26718;SDS011;14326;50.794;6.060;2024-03-22T06:31:34;22.15;;;8.93;;
26718;SDS011;14326;50.794;6.060;2024-03-22T06:34:00;25.00;;;9.10;;
26718;SDS011;14326;50.794;6.060;2024-03-22T06:36:27;23.52;;;9.93;;
26718;SDS011;14326;50.794;6.060;2024-03-22T06:38:54;25.42;;;9.60;;
26718;SDS011;14326;50.794;6.060;2024-03-22T06:41:21;20.85;;;9.13;;
26718;SDS011;14326;50.794;6.060;2024-03-22T06:43:47;21.48;;;8.75;;
26718;SDS011;14326;50.794;6.060;2024-03-22T06:46:13;21.50;;;9.10;;
26718;SDS011;14326;50.794;6.060;2024-03-22T06:48:39;20.73;;;8.55;;
26718;SDS011;14326;50.794;6.060;2024-03-22T06:51:05;25.35;;;9.05;;
26718;SDS011;14326;50.794;6.060;2024-03-22T06:53:32;23.55;;;9.50;;
26718;SDS011;14326;50.794;6.060;2024-03-22T06:55:57;23.58;;;10.05;;
26718;SDS011;14326;50.794;6.060;2024-03-22T06:58:25;26.23;;;9.80;;
26718;SDS011;14326;50.794;6.060;2024-03-22T07:00:51;24.10;;;10.05;;
26718;SDS011;14326;50.794;6.060;2024-03-22T07:03:17;24.38;;;10.20;;
26718;SDS011;14326;50.794;6.060;2024-03-22T07:05:43;23.73;;;9.98;;
26718;SDS011;14326;50.794;6.060;2024-03-22T07:08:10;26.33;;;10.95;;
26718;SDS011;14326;50.794;6.060;2024-03-22T07:10:38;27.48;;;11.52;;
26718;SDS011;14326;50.794;6.060;2024-03-22T07:13:04;30.10;;;13.13;;
26718;SDS011;14326;50.794;6.060;2024-03-22T07:15:31;29.23;;;12.48;;
26718;SDS011;14326;50.794;6.060;2024-03-22T07:17:58;29.48;;;12.73;;
26718;SDS011;14326;50.794;6.060;2024-03-22T07:20:24;34.25;;;14.77;;
26718;SDS011;14326;50.794;6.060;2024-03-22T07:22:50;32.72;;;15.43;;
26718;SDS011;14326;50.794;6.060;2024-03-22T07:25:17;31.00;;;14.80;;
26718;SDS011;14326;50.794;6.060;2024-03-22T07:27:43;34.92;;;14.82;;
26718;SDS011;14326;50.794;6.060;2024-03-22T07:30:09;38.90;;;15.52;;
26718;SDS011;14326;50.794;6.060;2024-03-22T07:32:37;41.97;;;16.40;;
26718;SDS011;14326;50.794;6.060;2024-03-22T07:35:03;49.63;;;16.33;;
26718;SDS011;14326;50.794;6.060;2024-03-22T07:37:30;32.42;;;15.02;;
26718;SDS011;14326;50.794;6.060;2024-03-22T07:39:56;32.83;;;15.32;;
26718;SDS011;14326;50.794;6.060;2024-03-22T07:42:23;34.63;;;15.32;;
26718;SDS011;14326;50.794;6.060;2024-03-22T07:44:49;33.88;;;15.50;;
26718;SDS011;14326;50.794;6.060;2024-03-22T07:47:15;34.80;;;16.17;;
26718;SDS011;14326;50.794;6.060;2024-03-22T07:49:43;36.15;;;15.20;;
26718;SDS011;14326;50.794;6.060;2024-03-22T07:52:10;33.60;;;15.35;;
26718;SDS011;14326;50.794;6.060;2024-03-22T07:54:35;35.83;;;16.17;;
26718;SDS011;14326;50.794;6.060;2024-03-22T07:57:02;32.40;;;14.85;;
26718;SDS011;14326;50.794;6.060;2024-03-22T07:59:29;35.35;;;15.80;;
26718;SDS011;14326;50.794;6.060;2024-03-22T08:01:55;32.78;;;16.35;;
26718;SDS011;14326;50.794;6.060;2024-03-22T08:04:22;29.70;;;14.75;;
26718;SDS011;14326;50.794;6.060;2024-03-22T08:06:51;31.88;;;14.82;;
26718;SDS011;14326;50.794;6.060;2024-03-22T08:09:17;37.42;;;16.17;;
26718;SDS011;14326;50.794;6.060;2024-03-22T08:11:44;34.92;;;15.98;;
26718;SDS011;14326;50.794;6.060;2024-03-22T08:14:10;32.60;;;15.48;;
26718;SDS011;14326;50.794;6.060;2024-03-22T08:16:37;33.53;;;14.85;;
26718;SDS011;14326;50.794;6.060;2024-03-22T08:19:02;32.17;;;14.05;;
26718;SDS011;14326;50.794;6.060;2024-03-22T08:21:29;36.63;;;16.00;;
26718;SDS011;14326;50.794;6.060;2024-03-22T08:23:56;32.13;;;15.32;;
26718;SDS011;14326;50.794;6.060;2024-03-22T08:26:22;33.05;;;14.57;;
26718;SDS011;14326;50.794;6.060;2024-03-22T08:28:48;32.60;;;15.60;;
26718;SDS011;14326;50.794;6.060;2024-03-22T08:31:15;30.40;;;15.10;;
26718;SDS011;14326;50.794;6.060;2024-03-22T08:33:42;31.48;;;14.73;;
26718;SDS011;14326;50.794;6.060;2024-03-22T08:36:08;35.60;;;14.50;;
26718;SDS011;14326;50.794;6.060;2024-03-22T08:38:34;34.58;;;14.55;;
26718;SDS011;14326;50.794;6.060;2024-03-22T08:41:03;32.03;;;14.27;;
26718;SDS011;14326;50.794;6.060;2024-03-22T08:43:29;31.20;;;14.80;;
26718;SDS011;14326;50.794;6.060;2024-03-22T08:45:55;33.15;;;14.90;;
26718;SDS011;14326;50.794;6.060;2024-03-22T08:48:21;33.92;;;14.55;;
26718;SDS011;14326;50.794;6.060;2024-03-22T08:50:48;31.60;;;14.05;;
26718;SDS011;14326;50.794;6.060;2024-03-22T08:53:13;29.20;;;14.02;;
26718;SDS011;14326;50.794;6.060;2024-03-22T08:55:44;33.70;;;15.30;;
26718;SDS011;14326;50.794;6.060;2024-03-22T08:58:14;30.90;;;15.02;;
26718;SDS011;14326;50.794;6.060;2024-03-22T09:00:43;33.50;;;14.80;;
26718;SDS011;14326;50.794;6.060;2024-03-22T09:03:09;33.65;;;14.98;;
26718;SDS011;14326;50.794;6.060;2024-03-22T09:05:36;30.63;;;13.85;;
26718;SDS011;14326;50.794;6.060;2024-03-22T09:08:02;34.28;;;15.63;;
26718;SDS011;14326;50.794;6.060;2024-03-22T09:10:29;29.75;;;14.10;;
26718;SDS011;14326;50.794;6.060;2024-03-22T09:12:54;35.40;;;16.48;;
26718;SDS011;14326;50.794;6.060;2024-03-22T09:15:23;30.92;;;15.18;;
26718;SDS011;14326;50.794;6.060;2024-03-22T09:17:49;31.92;;;15.13;;
26718;SDS011;14326;50.794;6.060;2024-03-22T09:20:17;31.20;;;14.77;;
26718;SDS011;14326;50.794;6.060;2024-03-22T09:22:43;33.58;;;15.75;;
26718;SDS011;14326;50.794;6.060;2024-03-22T09:25:09;34.15;;;16.00;;
26718;SDS011;14326;50.794;6.060;2024-03-22T09:27:35;30.45;;;14.77;;
26718;SDS011;14326;50.794;6.060;2024-03-22T09:30:01;31.95;;;14.05;;
26718;SDS011;14326;50.794;6.060;2024-03-22T09:32:30;31.73;;;16.90;;
26718;SDS011;14326;50.794;6.060;2024-03-22T09:34:57;32.17;;;15.27;;
26718;SDS011;14326;50.794;6.060;2024-03-22T09:37:23;31.90;;;14.02;;
26718;SDS011;14326;50.794;6.060;2024-03-22T09:39:49;30.27;;;14.63;;
26718;SDS011;14326;50.794;6.060;2024-03-22T09:42:16;32.55;;;15.30;;
26718;SDS011;14326;50.794;6.060;2024-03-22T09:44:44;28.80;;;13.63;;
26718;SDS011;14326;50.794;6.060;2024-03-22T09:47:13;29.40;;;13.63;;
26718;SDS011;14326;50.794;6.060;2024-03-22T09:49:42;30.35;;;14.40;;
26718;SDS011;14326;50.794;6.060;2024-03-22T09:52:11;32.08;;;13.80;;
26718;SDS011;14326;50.794;6.060;2024-03-22T09:54:40;29.00;;;13.57;;
26718;SDS011;14326;50.794;6.060;2024-03-22T09:57:07;26.77;;;13.35;;
26718;SDS011;14326;50.794;6.060;2024-03-22T09:59:37;27.98;;;13.68;;
26718;SDS011;14326;50.794;6.060;2024-03-22T10:02:03;27.98;;;13.70;;
26718;SDS011;14326;50.794;6.060;2024-03-22T10:04:30;30.48;;;14.02;;
26718;SDS011;14326;50.794;6.060;2024-03-22T10:06:57;30.52;;;13.82;;
26718;SDS011;14326;50.794;6.060;2024-03-22T10:09:27;32.10;;;15.35;;
26718;SDS011;14326;50.794;6.060;2024-03-22T10:11:55;31.73;;;14.25;;
26718;SDS011;14326;50.794;6.060;2024-03-22T10:14:21;31.30;;;14.07;;
26718;SDS011;14326;50.794;6.060;2024-03-22T10:16:50;26.73;;;13.68;;
26718;SDS011;14326;50.794;6.060;2024-03-22T10:19:18;32.00;;;14.82;;
26718;SDS011;14326;50.794;6.060;2024-03-22T10:21:43;29.23;;;15.07;;
26718;SDS011;14326;50.794;6.060;2024-03-22T10:24:11;29.17;;;13.77;;
26718;SDS011;14326;50.794;6.060;2024-03-22T10:26:37;33.28;;;16.63;;
26718;SDS011;14326;50.794;6.060;2024-03-22T10:29:05;29.13;;;15.38;;
26718;SDS011;14326;50.794;6.060;2024-03-22T10:31:31;29.17;;;15.30;;
26718;SDS011;14326;50.794;6.060;2024-03-22T10:34:00;33.80;;;16.98;;
26718;SDS011;14326;50.794;6.060;2024-03-22T10:36:29;33.30;;;16.75;;
26718;SDS011;14326;50.794;6.060;2024-03-22T10:38:58;34.58;;;16.20;;
26718;SDS011;14326;50.794;6.060;2024-03-22T10:41:26;35.05;;;17.10;;
26718;SDS011;14326;50.794;6.060;2024-03-22T10:43:53;30.83;;;16.00;;
26718;SDS011;14326;50.794;6.060;2024-03-22T10:46:19;33.75;;;16.40;;
26718;SDS011;14326;50.794;6.060;2024-03-22T10:48:47;31.20;;;16.08;;
26718;SDS011;14326;50.794;6.060;2024-03-22T10:51:14;32.60;;;15.50;;
26718;SDS011;14326;50.794;6.060;2024-03-22T10:53:42;32.75;;;16.88;;
26718;SDS011;14326;50.794;6.060;2024-03-22T10:56:09;32.47;;;15.75;;
26718;SDS011;14326;50.794;6.060;2024-03-22T10:58:40;29.83;;;14.75;;
26718;SDS011;14326;50.794;6.060;2024-03-22T11:01:06;30.00;;;15.63;;
26718;SDS011;14326;50.794;6.060;2024-03-22T11:03:32;28.65;;;14.55;;
26718;SDS011;14326;50.794;6.060;2024-03-22T11:06:00;29.70;;;15.50;;
26718;SDS011;14326;50.794;6.060;2024-03-22T11:08:27;29.00;;;13.98;;
26718;SDS011;14326;50.794;6.060;2024-03-22T11:10:54;27.30;;;13.50;;
26718;SDS011;14326;50.794;6.060;2024-03-22T11:13:22;29.35;;;13.32;;
26718;SDS011;14326;50.794;6.060;2024-03-22T11:15:50;29.00;;;13.40;;
26718;SDS011;14326;50.794;6.060;2024-03-22T11:18:16;30.77;;;14.07;;
26718;SDS011;14326;50.794;6.060;2024-03-22T11:20:43;29.40;;;14.15;;
26718;SDS011;14326;50.794;6.060;2024-03-22T11:23:11;30.65;;;14.85;;
26718;SDS011;14326;50.794;6.060;2024-03-22T11:25:36;33.33;;;15.82;;
26718;SDS011;14326;50.794;6.060;2024-03-22T11:28:03;34.63;;;15.38;;
26718;SDS011;14326;50.794;6.060;2024-03-22T11:30:29;35.08;;;16.58;;
26718;SDS011;14326;50.794;6.060;2024-03-22T11:33:00;34.30;;;15.02;;
26718;SDS011;14326;50.794;6.060;2024-03-22T11:35:26;37.53;;;16.58;;
26718;SDS011;14326;50.794;6.060;2024-03-22T11:37:52;35.92;;;16.90;;
26718;SDS011;14326;50.794;6.060;2024-03-22T11:40:18;32.83;;;16.95;;
26718;SDS011;14326;50.794;6.060;2024-03-22T11:42:46;33.85;;;16.25;;
26718;SDS011;14326;50.794;6.060;2024-03-22T11:45:14;32.92;;;15.82;;
26718;SDS011;14326;50.794;6.060;2024-03-22T11:47:43;29.45;;;14.02;;
26718;SDS011;14326;50.794;6.060;2024-03-22T11:50:10;31.27;;;14.32;;
26718;SDS011;14326;50.794;6.060;2024-03-22T11:52:40;33.72;;;15.05;;
26718;SDS011;14326;50.794;6.060;2024-03-22T11:55:06;32.90;;;15.25;;
26718;SDS011;14326;50.794;6.060;2024-03-22T11:57:32;30.30;;;15.50;;
26718;SDS011;14326;50.794;6.060;2024-03-22T11:59:58;28.58;;;13.93;;
26718;SDS011;14326;50.794;6.060;2024-03-22T12:02:26;28.45;;;13.82;;
26718;SDS011;14326;50.794;6.060;2024-03-22T12:04:51;29.83;;;13.90;;
26718;SDS011;14326;50.794;6.060;2024-03-22T12:07:19;31.70;;;14.40;;
26718;SDS011;14326;50.794;6.060;2024-03-22T12:09:45;30.08;;;15.65;;
26718;SDS011;14326;50.794;6.060;2024-03-22T12:12:12;30.40;;;15.18;;
26718;SDS011;14326;50.794;6.060;2024-03-22T12:14:38;31.40;;;14.90;;
26718;SDS011;14326;50.794;6.060;2024-03-22T12:17:05;31.63;;;16.25;;
26718;SDS011;14326;50.794;6.060;2024-03-22T12:19:31;32.80;;;17.55;;
26718;SDS011;14326;50.794;6.060;2024-03-22T12:21:58;29.75;;;16.00;;
26718;SDS011;14326;50.794;6.060;2024-03-22T12:24:25;32.08;;;17.48;;
26718;SDS011;14326;50.794;6.060;2024-03-22T12:26:52;36.28;;;18.83;;
26718;SDS011;14326;50.794;6.060;2024-03-22T12:29:18;34.50;;;17.52;;
26718;SDS011;14326;50.794;6.060;2024-03-22T12:31:46;34.60;;;17.67;;
26718;SDS011;14326;50.794;6.060;2024-03-22T12:34:12;31.00;;;16.48;;
26718;SDS011;14326;50.794;6.060;2024-03-22T12:36:38;30.83;;;16.20;;
26718;SDS011;14326;50.794;6.060;2024-03-22T12:39:04;31.92;;;17.17;;
26718;SDS011;14326;50.794;6.060;2024-03-22T12:41:33;31.30;;;16.52;;
26718;SDS011;14326;50.794;6.060;2024-03-22T12:43:59;31.02;;;15.90;;
26718;SDS011;14326;50.794;6.060;2024-03-22T12:46:26;32.20;;;16.40;;
26718;SDS011;14326;50.794;6.060;2024-03-22T12:48:52;33.90;;;16.00;;
26718;SDS011;14326;50.794;6.060;2024-03-22T12:51:19;30.88;;;15.10;;
26718;SDS011;14326;50.794;6.060;2024-03-22T12:53:45;32.80;;;15.40;;
26718;SDS011;14326;50.794;6.060;2024-03-22T12:56:12;34.05;;;15.85;;
26718;SDS011;14326;50.794;6.060;2024-03-22T12:58:39;32.78;;;15.75;;
26718;SDS011;14326;50.794;6.060;2024-03-22T13:01:46;32.63;;;15.88;;
26718;SDS011;14326;50.794;6.060;2024-03-22T13:04:45;32.78;;;15.18;;
26718;SDS011;14326;50.794;6.060;2024-03-22T13:07:45;30.13;;;15.43;;
26718;SDS011;14326;50.794;6.060;2024-03-22T13:10:45;29.73;;;13.82;;
26718;SDS011;14326;50.794;6.060;2024-03-22T13:13:45;30.58;;;15.57;;
26718;SDS011;14326;50.794;6.060;2024-03-22T13:16:45;28.88;;;13.60;;
26718;SDS011;14326;50.794;6.060;2024-03-22T13:19:45;29.83;;;14.18;;
26718;SDS011;14326;50.794;6.060;2024-03-22T13:22:45;30.70;;;13.77;;
26718;SDS011;14326;50.794;6.060;2024-03-22T13:25:45;25.50;;;13.80;;
26718;SDS011;14326;50.794;6.060;2024-03-22T13:28:45;27.02;;;13.65;;
26718;SDS011;14326;50.794;6.060;2024-03-22T13:31:45;26.65;;;13.10;;
26718;SDS011;14326;50.794;6.060;2024-03-22T13:34:45;28.70;;;13.48;;
26718;SDS011;14326;50.794;6.060;2024-03-22T13:37:45;25.17;;;11.65;;
26718;SDS011;14326;50.794;6.060;2024-03-22T13:40:45;26.25;;;11.57;;
26718;SDS011;14326;50.794;6.060;2024-03-22T13:43:45;23.02;;;10.77;;
26718;SDS011;14326;50.794;6.060;2024-03-22T13:46:45;25.67;;;10.90;;
26718;SDS011;14326;50.794;6.060;2024-03-22T13:49:45;27.23;;;11.15;;
26718;SDS011;14326;50.794;6.060;2024-03-22T13:52:46;24.52;;;11.15;;
26718;SDS011;14326;50.794;6.060;2024-03-22T13:55:46;25.02;;;11.18;;
26718;SDS011;14326;50.794;6.060;2024-03-22T13:58:45;23.40;;;11.98;;
26718;SDS011;14326;50.794;6.060;2024-03-22T14:01:45;26.45;;;10.77;;
26718;SDS011;14326;50.794;6.060;2024-03-22T14:04:45;27.55;;;10.88;;
26718;SDS011;14326;50.794;6.060;2024-03-22T14:07:45;27.83;;;10.65;;
26718;SDS011;14326;50.794;6.060;2024-03-22T14:10:45;24.15;;;10.15;;
26718;SDS011;14326;50.794;6.060;2024-03-22T14:13:45;22.65;;;10.68;;
26718;SDS011;14326;50.794;6.060;2024-03-22T14:16:45;22.27;;;9.65;;
26718;SDS011;14326;50.794;6.060;2024-03-22T14:19:45;23.42;;;9.57;;
26718;SDS011;14326;50.794;6.060;2024-03-22T14:22:45;25.35;;;9.68;;
26718;SDS011;14326;50.794;6.060;2024-03-22T14:25:45;22.67;;;10.52;;
26718;SDS011;14326;50.794;6.060;2024-03-22T14:28:45;20.63;;;9.50;;
26718;SDS011;14326;50.794;6.060;2024-03-22T14:31:45;22.63;;;9.32;;
26718;SDS011;14326;50.794;6.060;2024-03-22T14:34:45;22.63;;;10.65;;